Time;durP1;ratioP1;P1;durP2;ratioP2;P2;SDS_P1;SDS_P2;PMS_P1;PMS_P2;Temp;Humidity;BMP_temperature;BMP_pressure;BME280_temperature;BME280_humidity;BME280_pressure;Samples;Min_cycle;Max_cycle;Signal;HPM_P1;HPM_P2
2023/08/10 00:01:49;;;;;;;13.80;7.30;;;;;;;24.13;42.12;100553.59;107982;1254;72853;-70
2023/08/10 00:04:17;;;;;;;10.40;6.80;;;;;;;24.37;41.61;100552.09;107951;1254;70009;-71
2023/08/10 00:06:45;;;;;;;10.50;6.80;;;;;;;24.45;41.28;100551.34;107952;1254;72683;-70
2023/08/10 00:09:12;;;;;;;10.10;6.70;;;;;;;24.47;41.27;100552.07;107974;1254;61636;-69
2023/08/10 00:11:40;;;;;;;14.90;6.60;;;;;;;24.18;41.68;100555.90;107998;1254;59993;-70
2023/08/10 00:14:07;;;;;;;14.80;7.80;;;;;;;23.77;42.36;100558.02;108055;1255;73848;-70
2023/08/10 00:16:35;;;;;;;13.80;7.00;;;;;;;23.66;42.53;100555.16;107997;1254;69829;-69
2023/08/10 00:19:03;;;;;;;12.10;6.90;;;;;;;23.67;42.57;100558.81;107978;1254;72442;-70
2023/08/10 00:21:30;;;;;;;15.10;7.70;;;;;;;23.86;42.24;100557.73;107967;1254;61208;-69
2023/08/10 00:23:57;;;;;;;19.60;9.10;;;;;;;23.81;42.35;100555.29;107794;1254;60464;-69
2023/08/10 00:26:25;;;;;;;11.90;6.60;;;;;;;23.80;42.38;100558.28;107971;1258;73917;-70
2023/08/10 00:28:52;;;;;;;18.40;8.10;;;;;;;23.69;42.48;100556.83;108006;1253;70463;-69
2023/08/10 00:31:20;;;;;;;15.00;8.30;;;;;;;23.38;43.29;100558.59;108022;1253;71204;-70
2023/08/10 00:33:47;;;;;;;16.00;8.00;;;;;;;23.22;43.84;100561.14;108025;1253;60596;-69
2023/08/10 00:36:15;;;;;;;19.90;8.40;;;;;;;23.53;43.24;100564.44;108090;1253;60302;-67
2023/08/10 00:38:43;;;;;;;12.30;6.90;;;;;;;23.87;42.62;100563.73;108103;1253;73874;-68
2023/08/10 00:41:11;;;;;;;15.10;8.30;;;;;;;24.02;42.48;100562.98;108098;1253;70320;-69
2023/08/10 00:43:40;;;;;;;11.70;6.70;;;;;;;23.98;42.39;100562.81;108039;1254;71434;-69
2023/08/10 00:46:09;;;;;;;13.10;6.80;;;;;;;24.04;42.56;100561.23;107982;1256;60792;-70
2023/08/10 00:48:37;;;;;;;12.00;7.20;;;;;;;23.91;42.90;100565.05;108015;1253;60378;-69
2023/08/10 00:51:04;;;;;;;14.80;7.60;;;;;;;23.81;42.90;100562.65;107831;1254;75855;-68
2023/08/10 00:53:32;;;;;;;17.90;8.80;;;;;;;23.64;43.05;100561.27;107732;1254;70071;-68
2023/08/10 00:56:00;;;;;;;17.30;7.90;;;;;;;23.55;43.14;100568.38;108051;1254;71286;-69
2023/08/10 00:58:31;;;;;;;10.40;6.30;;;;;;;23.48;43.33;100568.80;107764;1255;62769;-69
2023/08/10 01:00:59;;;;;;;15.10;8.00;;;;;;;23.70;42.91;100576.85;108065;1254;60205;-70
2023/08/10 01:03:26;;;;;;;16.20;8.00;;;;;;;23.52;43.02;100579.95;107954;1254;74153;-69
2023/08/10 01:05:54;;;;;;;18.80;8.60;;;;;;;23.41;43.32;100578.20;108026;1254;70416;-69
2023/08/10 01:08:29;;;;;;;18.50;8.80;;;;;;;23.40;43.37;100579.89;108148;1254;71673;-69
2023/08/10 01:11:06;;;;;;;20.10;8.90;;;;;;;23.44;43.21;100584.45;107842;1255;62726;-69
2023/08/10 01:13:38;;;;;;;20.10;9.00;;;;;;;23.60;43.00;100587.01;108013;1254;60300;-69
2023/08/10 01:16:08;;;;;;;17.90;8.40;;;;;;;23.41;43.25;100581.02;108163;1254;73826;-70
2023/08/10 01:18:36;;;;;;;16.50;8.30;;;;;;;23.49;43.53;100577.71;107877;1254;71344;-70
2023/08/10 01:21:12;;;;;;;17.30;10.10;;;;;;;23.60;43.22;100583.35;107948;1254;72476;-70
2023/08/10 01:23:41;;;;;;;16.50;7.80;;;;;;;23.75;42.98;100588.80;107917;1254;61657;-70
2023/08/10 01:26:09;;;;;;;13.90;8.30;;;;;;;23.73;43.12;100588.82;108022;1253;60035;-70
2023/08/10 01:28:36;;;;;;;18.20;9.00;;;;;;;23.74;43.03;100586.42;107921;1253;73870;-70
2023/08/10 01:31:04;;;;;;;17.50;8.00;;;;;;;23.64;43.34;100592.91;108038;1253;69935;-68
2023/08/10 01:33:33;;;;;;;21.10;9.40;;;;;;;23.77;42.91;100588.52;108053;1253;72466;-70
2023/08/10 01:36:00;;;;;;;16.60;8.90;;;;;;;23.80;42.75;100586.80;108052;1253;61711;-71
2023/08/10 01:38:28;;;;;;;15.80;8.30;;;;;;;23.77;42.63;100587.58;107998;1253;59642;-67
2023/08/10 01:40:55;;;;;;;18.00;9.00;;;;;;;23.78;42.59;100587.65;108060;1253;73940;-69
2023/08/10 01:43:23;;;;;;;15.20;7.50;;;;;;;23.66;42.84;100587.42;107939;1253;70054;-70
2023/08/10 01:45:52;;;;;;;18.00;8.60;;;;;;;23.69;42.94;100588.27;108106;1253;71361;-70
2023/08/10 01:48:22;;;;;;;15.60;8.90;;;;;;;23.75;42.81;100589.91;107996;1253;61762;-69
2023/08/10 01:50:49;;;;;;;18.60;9.10;;;;;;;23.10;44.01;100592.91;107902;1253;60534;-70
2023/08/10 01:53:18;;;;;;;22.60;9.40;;;;;;;23.10;44.08;100595.05;107881;1253;74396;-69
2023/08/10 01:55:45;;;;;;;18.70;7.70;;;;;;;23.38;43.57;100595.80;108150;1253;70307;-69
2023/08/10 01:58:13;;;;;;;17.30;8.40;;;;;;;23.56;43.13;100595.38;108050;1256;72451;-70
2023/08/10 02:00:40;;;;;;;21.50;9.40;;;;;;;23.70;42.79;100592.83;107981;1253;61899;-70
2023/08/10 02:03:08;;;;;;;12.50;7.80;;;;;;;23.69;42.59;100595.22;108056;1253;60379;-70
2023/08/10 02:05:35;;;;;;;29.10;10.50;;;;;;;23.73;42.75;100596.83;108173;1253;73187;-68
2023/08/10 02:08:03;;;;;;;23.30;9.60;;;;;;;23.67;42.78;100599.68;108093;1253;70315;-71
2023/08/10 02:10:32;;;;;;;17.20;8.20;;;;;;;23.52;42.80;100602.20;108093;1253;70509;-70
2023/08/10 02:12:59;;;;;;;23.80;9.50;;;;;;;23.43;42.97;100601.35;107938;1253;60422;-69
2023/08/10 02:15:27;;;;;;;20.20;9.60;;;;;;;23.39;42.91;100601.52;108134;1253;60348;-70
2023/08/10 02:17:55;;;;;;;17.80;9.70;;;;;;;23.22;43.34;100610.89;108069;1253;72569;-70
2023/08/10 02:20:23;;;;;;;19.10;10.30;;;;;;;23.28;43.12;100613.02;108055;1257;69967;-70
2023/08/10 02:22:51;;;;;;;15.80;8.60;;;;;;;23.16;43.32;100610.05;108059;1253;72441;-70
2023/08/10 02:25:19;;;;;;;20.30;9.50;;;;;;;22.98;43.84;100610.40;108085;1254;61687;-69
2023/08/10 02:27:50;;;;;;;18.10;9.40;;;;;;;22.98;44.02;100613.80;107978;1254;60207;-68
2023/08/10 02:30:18;;;;;;;17.60;8.80;;;;;;;22.85;44.17;100611.98;107918;1254;73287;-68
2023/08/10 02:32:45;;;;;;;19.20;9.50;;;;;;;22.98;43.79;100614.50;107946;1254;70406;-70
2023/08/10 02:35:13;;;;;;;15.60;8.30;;;;;;;23.26;43.17;100618.29;108023;1258;72659;-69
2023/08/10 02:37:41;;;;;;;16.80;9.20;;;;;;;23.34;43.37;100615.36;108008;1254;62532;-70
2023/08/10 02:40:12;;;;;;;17.20;9.30;;;;;;;23.24;43.45;100619.73;108002;1254;60632;-70
2023/08/10 02:42:40;;;;;;;16.70;8.50;;;;;;;23.24;43.47;100621.69;108005;1254;72555;-69
2023/08/10 02:45:09;;;;;;;17.60;9.80;;;;;;;23.10;43.55;100621.58;108096;1254;69465;-69
2023/08/10 02:47:36;;;;;;;17.10;8.90;;;;;;;23.24;43.26;100622.61;107964;1254;73046;-70
2023/08/10 02:50:07;;;;;;;26.60;9.60;;;;;;;23.31;43.20;100623.67;107985;1254;61786;-69
2023/08/10 02:52:35;;;;;;;17.00;9.40;;;;;;;23.37;42.95;100625.70;107892;1254;60277;-69
2023/08/10 02:55:03;;;;;;;18.00;9.30;;;;;;;23.27;43.07;100630.80;108015;1254;73823;-69
2023/08/10 02:57:31;;;;;;;21.10;9.90;;;;;;;23.19;43.31;100633.79;107962;1256;70638;-70
2023/08/10 02:59:59;;;;;;;19.30;10.10;;;;;;;23.16;43.49;100633.65;107847;1255;72432;-70
2023/08/10 03:02:28;;;;;;;19.00;9.70;;;;;;;23.44;43.02;100637.06;107916;1254;61740;-69
2023/08/10 03:04:56;;;;;;;19.60;9.50;;;;;;;23.36;43.05;100639.20;107943;1254;61085;-70
2023/08/10 03:07:23;;;;;;;14.70;8.70;;;;;;;23.32;43.04;100636.30;108000;1254;73729;-70
2023/08/10 03:09:51;;;;;;;17.60;9.40;;;;;;;23.42;43.02;100637.27;107950;1260;70114;-71
2023/08/10 03:12:21;;;;;;;21.00;9.20;;;;;;;23.15;43.54;100637.30;107868;1258;72687;-70
2023/08/10 03:14:49;;;;;;;13.50;8.00;;;;;;;22.87;44.60;100634.15;108029;1254;60545;-71
2023/08/10 03:17:16;;;;;;;19.50;9.80;;;;;;;23.33;43.85;100639.03;107908;1255;60054;-70
2023/08/10 03:19:44;;;;;;;14.90;8.80;;;;;;;23.68;43.23;100639.71;107917;1260;73792;-70
2023/08/10 03:22:12;;;;;;;20.80;9.20;;;;;;;23.72;43.37;100637.61;107935;1254;70335;-70
2023/08/10 03:24:40;;;;;;;20.40;8.70;;;;;;;23.97;43.00;100638.35;107907;1253;72423;-70
2023/08/10 03:27:07;;;;;;;18.90;8.90;;;;;;;24.19;43.03;100635.66;107879;1253;60841;-71
2023/08/10 03:29:35;;;;;;;13.30;8.20;;;;;;;24.55;43.03;100638.08;107950;1253;60273;-70
2023/08/10 03:32:03;;;;;;;19.10;8.10;;;;;;;24.86;42.56;100642.89;108117;1253;73925;-70
2023/08/10 03:34:31;;;;;;;12.40;7.70;;;;;;;25.39;41.90;100638.84;108049;1253;70267;-70
2023/08/10 03:36:58;;;;;;;14.80;7.80;;;;;;;25.92;40.74;100640.95;107987;1260;72683;-69
2023/08/10 03:39:26;;;;;;;19.00;7.80;;;;;;;26.39;39.62;100637.80;108011;1255;61725;-70
2023/08/10 03:41:53;;;;;;;16.90;7.50;;;;;;;26.73;39.11;100638.36;108026;1253;60371;-68
2023/08/10 03:44:21;;;;;;;17.10;7.60;;;;;;;27.21;38.24;100641.04;108006;1253;73786;-70
2023/08/10 03:46:48;;;;;;;17.10;7.10;;;;;;;27.79;37.19;100643.41;108057;1253;68967;-69
2023/08/10 03:49:16;;;;;;;11.90;7.10;;;;;;;28.32;36.46;100638.99;108154;1253;72454;-72
2023/08/10 03:51:44;;;;;;;13.40;6.70;;;;;;;28.77;35.56;100635.80;107981;1253;61150;-69
2023/08/10 03:54:11;;;;;;;14.00;6.80;;;;;;;29.14;34.84;100638.93;108164;1253;60198;-68
2023/08/10 03:56:38;;;;;;;14.00;6.30;;;;;;;29.30;34.47;100639.21;108095;1253;73882;-70
2023/08/10 03:59:06;;;;;;;14.60;7.10;;;;;;;29.52;34.19;100640.27;108127;1253;69583;-68
2023/08/10 04:01:33;;;;;;;13.50;6.80;;;;;;;29.67;34.08;100641.45;108169;1253;73004;-70
2023/08/10 04:04:01;;;;;;;19.10;7.50;;;;;;;30.28;32.86;100639.31;108100;1253;63160;-71
2023/08/10 04:06:31;;;;;;;15.00;6.20;;;;;;;30.77;32.31;100633.77;108143;1256;60981;-70
2023/08/10 04:08:58;;;;;;;13.20;6.20;;;;;;;31.23;31.72;100632.43;108125;1253;72633;-69
2023/08/10 04:11:26;;;;;;;11.40;6.00;;;;;;;31.70;30.85;100641.43;108180;1253;69119;-70
2023/08/10 04:13:53;;;;;;;14.90;6.40;;;;;;;31.98;30.54;100645.41;108001;1258;71100;-69
2023/08/10 04:16:21;;;;;;;11.80;5.90;;;;;;;32.09;30.46;100644.77;108206;1253;62079;-69
2023/08/10 04:18:48;;;;;;;14.90;6.10;;;;;;;32.61;29.86;100638.13;108172;1253;60285;-70
2023/08/10 04:21:16;;;;;;;15.70;6.40;;;;;;;32.79;29.58;100640.83;108178;1252;73798;-71
2023/08/10 04:23:43;;;;;;;10.00;5.80;;;;;;;32.95;29.23;100636.19;108335;1253;70269;-68
2023/08/10 04:26:10;;;;;;;12.30;5.80;;;;;;;32.96;29.13;100642.66;108154;1257;72768;-67
2023/08/10 04:28:38;;;;;;;11.70;5.90;;;;;;;33.31;28.88;100640.53;108230;1253;60449;-70
2023/08/10 04:31:05;;;;;;;10.00;5.20;;;;;;;33.83;28.37;100643.80;108137;1253;60441;-69
2023/08/10 04:33:33;;;;;;;12.30;5.30;;;;;;;33.96;28.02;100643.45;108179;1253;63711;-71
2023/08/10 04:36:00;;;;;;;9.80;5.10;;;;;;;33.97;28.07;100646.91;108146;1253;70459;-70
2023/08/10 04:38:28;;;;;;;10.30;5.30;;;;;;;34.51;27.47;100647.70;108184;1253;62733;-73
2023/08/10 04:40:55;;;;;;;16.20;5.00;;;;;;;34.94;27.18;100645.70;108206;1253;60413;-72
2023/08/10 04:43:23;;;;;;;11.00;4.90;;;;;;;35.05;26.55;100645.29;108180;1253;60553;-70
2023/08/10 04:45:50;;;;;;;12.20;5.00;;;;;;;35.25;26.45;100645.91;108175;1257;63731;-71
2023/08/10 04:48:18;;;;;;;12.50;5.20;;;;;;;35.65;26.10;100644.88;108340;1253;61717;-71
2023/08/10 04:50:45;;;;;;;11.60;5.00;;;;;;;36.16;25.26;100643.05;108182;1254;63711;-71
2023/08/10 04:53:12;;;;;;;12.90;4.40;;;;;;;36.33;24.98;100646.33;108163;1253;60449;-72
2023/08/10 04:55:40;;;;;;;13.60;5.00;;;;;;;36.38;24.70;100648.77;108274;1253;60364;-71
2023/08/10 04:58:08;;;;;;;7.30;3.70;;;;;;;36.62;23.76;100649.49;108195;1253;64913;-69
2023/08/10 05:00:36;;;;;;;10.40;3.20;;;;;;;36.83;23.29;100645.30;108282;1253;60441;-70
2023/08/10 05:03:04;;;;;;;10.60;3.70;;;;;;;36.87;22.54;100641.23;108100;1257;63840;-72
2023/08/10 05:05:32;;;;;;;6.20;2.60;;;;;;;36.91;22.12;100639.39;108140;1253;60337;-71
2023/08/10 05:08:00;;;;;;;6.20;2.40;;;;;;;36.52;21.09;100639.03;108318;1253;60991;-71
2023/08/10 05:10:27;;;;;;;7.50;2.40;;;;;;;36.39;21.17;100644.98;108200;1259;73978;-69
2023/08/10 05:12:54;;;;;;;7.60;2.50;;;;;;;36.08;20.87;100654.77;108231;1257;61804;-71
2023/08/10 05:15:22;;;;;;;8.50;2.20;;;;;;;35.81;20.93;100656.03;108340;1253;63820;-70
2023/08/10 05:17:49;;;;;;;7.10;2.50;;;;;;;35.71;20.71;100650.88;108211;1253;60331;-70
2023/08/10 05:20:17;;;;;;;6.70;2.60;;;;;;;35.73;21.51;100652.11;108162;1253;60322;-71
2023/08/10 05:22:44;;;;;;;5.10;2.30;;;;;;;35.85;20.89;100652.61;108168;1253;64967;-71
2023/08/10 05:25:12;;;;;;;7.20;2.30;;;;;;;36.16;20.41;100652.67;108101;1253;60358;-71
2023/08/10 05:27:43;;;;;;;6.50;2.50;;;;;;;36.19;20.44;100653.15;108033;1253;63806;-70
2023/08/10 05:30:11;;;;;;;11.60;2.80;;;;;;;36.18;20.82;100653.82;107990;1253;60414;-70
2023/08/10 05:32:40;;;;;;;7.70;2.80;;;;;;;36.21;20.88;100653.14;107734;1257;528690;-70
2023/08/10 05:36:29;;;;;;;4.20;2.30;;;;;;;34.39;22.36;100652.58;104916;1290;600852;-72
2023/08/10 05:38:56;;;;;;;5.10;2.70;;;;;;;35.39;21.38;100650.71;107302;1267;59528;-71
2023/08/10 05:41:23;;;;;;;8.90;2.80;;;;;;;35.42;21.29;100654.22;107267;1267;59221;-71
2023/08/10 05:43:51;;;;;;;6.70;2.60;;;;;;;35.54;21.36;100652.82;107302;1264;63310;-71
2023/08/10 05:46:18;;;;;;;10.20;2.90;;;;;;;35.75;21.12;100654.16;107293;1269;60145;-71
2023/08/10 05:48:46;;;;;;;8.70;2.50;;;;;;;36.14;20.81;100656.30;107242;1267;62526;-71
2023/08/10 05:51:13;;;;;;;8.30;2.50;;;;;;;36.45;20.54;100654.70;107057;1264;279437;-72
2023/08/10 05:53:41;;;;;;;7.90;2.70;;;;;;;36.70;20.09;100657.33;107367;1264;59256;-72
2023/08/10 05:56:08;;;;;;;5.10;2.50;;;;;;;36.69;20.31;100659.34;107323;1264;63373;-71
2023/08/10 05:58:36;;;;;;;11.20;2.90;;;;;;;36.61;20.16;100658.60;107771;1263;61479;-70
2023/08/10 06:01:03;;;;;;;6.40;3.20;;;;;;;36.53;20.90;100661.48;107759;1257;62593;-71
2023/08/10 06:03:31;;;;;;;6.90;2.90;;;;;;;36.34;20.86;100663.77;107752;1256;59156;-72
2023/08/10 06:06:00;;;;;;;11.90;3.50;;;;;;;36.37;21.05;100663.19;107809;1257;59618;-70
2023/08/10 06:08:27;;;;;;;24.40;4.10;;;;;;;36.32;20.94;100659.61;107758;1263;64145;-70
2023/08/10 06:10:55;;;;;;;14.00;3.30;;;;;;;36.34;20.95;100660.00;107744;1257;60198;-72
2023/08/10 06:13:22;;;;;;;10.60;3.60;;;;;;;36.27;20.76;100662.54;107769;1258;63708;-72
2023/08/10 06:15:49;;;;;;;17.40;4.10;;;;;;;36.26;20.88;100661.06;107804;1256;59614;-69
2023/08/10 06:18:17;;;;;;;19.10;3.70;;;;;;;36.15;20.87;100662.05;107745;1262;59533;-71
2023/08/10 06:20:45;;;;;;;19.20;4.00;;;;;;;36.75;20.89;100658.08;107635;1257;64136;-70
2023/08/10 06:23:14;;;;;;;14.40;3.80;;;;;;;37.09;20.42;100658.96;107801;1257;60410;-71
2023/08/10 06:25:41;;;;;;;8.10;2.90;;;;;;;37.15;20.19;100660.88;107804;1260;63826;-70
2023/08/10 06:28:08;;;;;;;12.00;3.50;;;;;;;37.64;19.96;100658.57;107810;1260;59643;-71
2023/08/10 06:30:36;;;;;;;19.40;3.90;;;;;;;37.98;19.61;100656.38;107846;1256;59202;-70
2023/08/10 06:33:04;;;;;;;12.50;3.30;;;;;;;38.40;19.58;100652.66;107827;1258;62913;-71
2023/08/10 06:35:35;;;;;;;21.70;4.10;;;;;;;38.69;19.48;100649.82;107817;1263;69324;-72
2023/08/10 06:38:04;;;;;;;18.80;4.20;;;;;;;39.08;18.82;100650.58;107882;1262;63767;-71
2023/08/10 06:40:31;;;;;;;21.70;4.50;;;;;;;39.00;18.30;100655.76;107752;1257;59578;-71
2023/08/10 06:42:59;;;;;;;25.30;5.30;;;;;;;38.94;18.49;100654.17;107780;1257;59025;-72
2023/08/10 06:45:41;;;;;;;34.10;6.00;;;;;;;39.28;18.38;100652.08;107788;1257;62903;-72
2023/08/10 06:48:08;;;;;;;32.60;5.60;;;;;;;39.24;17.92;100645.18;107760;1257;61533;-72
2023/08/10 06:50:37;;;;;;;28.30;5.50;;;;;;;39.53;17.75;100646.02;107824;1258;62677;-72
2023/08/10 06:53:05;;;;;;;16.00;3.70;;;;;;;40.10;17.86;100649.39;107680;1260;59623;-71
2023/08/10 06:55:33;;;;;;;27.70;5.40;;;;;;;40.44;17.24;100647.44;107720;1262;57974;-71
2023/08/10 06:58:00;;;;;;;28.70;5.60;;;;;;;40.60;17.08;100645.86;107677;1257;62880;-74
2023/08/10 07:00:27;;;;;;;10.30;3.60;;;;;;;40.71;16.96;100648.08;107773;1258;60372;-71
2023/08/10 07:02:59;;;;;;;14.20;3.90;;;;;;;40.58;16.83;100647.74;107745;1263;62901;-72
2023/08/10 07:05:26;;;;;;;18.40;4.00;;;;;;;40.62;16.93;100648.56;107783;1257;59439;-73
2023/08/10 07:07:55;;;;;;;10.70;3.30;;;;;;;40.71;17.08;100649.20;107750;1257;59535;-71
2023/08/10 07:10:23;;;;;;;7.50;2.40;;;;;;;40.66;16.70;100651.67;107830;1256;64299;-71
2023/08/10 07:12:50;;;;;;;5.50;2.10;;;;;;;40.45;16.56;100645.58;107826;1257;60100;-70
2023/08/10 07:15:17;;;;;;;8.90;2.50;;;;;;;40.42;16.46;100643.97;107860;1257;63927;-72
2023/08/10 07:17:45;;;;;;;7.40;2.20;;;;;;;40.37;16.52;100647.73;107850;1257;59532;-70
2023/08/10 07:20:13;;;;;;;6.70;2.10;;;;;;;40.18;16.49;100644.31;107922;1257;59078;-70
2023/08/10 07:22:45;;;;;;;8.70;2.20;;;;;;;40.08;16.46;100641.02;107859;1256;64185;-71
2023/08/10 07:25:17;;;;;;;5.30;2.40;;;;;;;39.96;16.89;100645.52;107875;1257;60905;-70
2023/08/10 07:27:45;;;;;;;4.20;1.90;;;;;;;40.03;16.56;100650.05;107767;1261;63816;-72
2023/08/10 07:30:16;;;;;;;9.50;2.20;;;;;;;40.08;16.77;100650.02;107878;1257;60106;-71
2023/08/10 07:32:44;;;;;;;7.20;2.30;;;;;;;40.14;17.21;100649.57;107949;1257;59485;-71
2023/08/10 07:35:12;;;;;;;5.80;2.20;;;;;;;40.25;17.39;100652.70;107959;1255;64126;-71
2023/08/10 07:37:40;;;;;;;3.70;1.70;;;;;;;40.43;16.84;100655.80;107827;1257;60266;-71
2023/08/10 07:40:10;;;;;;;5.30;2.40;;;;;;;40.64;16.68;100648.19;107833;1258;63851;-68
2023/08/10 07:42:37;;;;;;;11.60;2.60;;;;;;;40.75;16.18;100653.15;107943;1257;59557;-71
2023/08/10 07:45:09;;;;;;;9.50;2.50;;;;;;;40.91;16.45;100653.83;107913;1260;59708;-69
2023/08/10 07:47:37;;;;;;;5.30;1.80;;;;;;;40.92;15.68;100649.09;107878;1257;64120;-72
2023/08/10 07:50:05;;;;;;;16.30;2.90;;;;;;;40.80;15.97;100648.90;107750;1258;60884;-72
2023/08/10 07:52:33;;;;;;;8.00;2.10;;;;;;;40.67;16.20;100644.38;107741;1258;63890;-70
2023/08/10 07:55:00;;;;;;;7.00;2.10;;;;;;;40.81;16.04;100644.11;107795;1258;59999;-71
2023/08/10 07:57:29;;;;;;;7.50;2.20;;;;;;;40.95;15.98;100647.71;107778;1257;59484;-70
2023/08/10 08:00:00;;;;;;;5.90;2.30;;;;;;;41.02;15.94;100645.54;107939;1257;64087;-72
2023/08/10 08:02:38;;;;;;;10.30;2.00;;;;;;;41.33;15.66;100641.84;107843;1260;62188;-68
2023/08/10 08:05:06;;;;;;;9.80;2.10;;;;;;;41.22;15.30;100644.34;107836;1260;63729;-71
2023/08/10 08:07:34;;;;;;;3.40;1.80;;;;;;;40.78;15.20;100647.90;107804;1260;58981;-72
2023/08/10 08:10:01;;;;;;;3.30;1.60;;;;;;;40.50;15.36;100645.14;107843;1257;59024;-71
2023/08/10 08:12:28;;;;;;;4.80;1.90;;;;;;;40.60;15.11;100650.13;107894;1257;63357;-72
2023/08/10 08:14:56;;;;;;;5.70;1.80;;;;;;;40.87;14.95;100648.61;107754;1261;60083;-72
2023/08/10 08:17:23;;;;;;;4.80;1.80;;;;;;;41.08;14.61;100647.10;107765;1257;63968;-71
2023/08/10 08:19:55;;;;;;;5.90;1.80;;;;;;;41.24;14.78;100641.52;107753;1257;59635;-71
2023/08/10 08:22:24;;;;;;;5.90;2.10;;;;;;;41.34;15.07;100636.55;107847;1255;59529;-71
2023/08/10 08:24:52;;;;;;;3.30;1.70;;;;;;;41.51;15.15;100631.90;107755;1255;64170;-73
2023/08/10 08:27:19;;;;;;;5.30;1.90;;;;;;;41.77;15.25;100630.17;107774;1258;61010;-70
2023/08/10 08:29:47;;;;;;;3.50;1.90;;;;;;;41.74;15.15;100635.89;107928;1258;63762;-72
2023/08/10 08:32:14;;;;;;;6.40;2.10;;;;;;;41.71;15.59;100636.61;107750;1257;59651;-71
2023/08/10 08:35:03;;;;;;;5.50;1.80;;;;;;;41.91;15.34;100630.98;107846;1257;59771;-71
2023/08/10 08:37:32;;;;;;;2.70;1.50;;;;;;;42.25;15.02;100629.50;107771;1257;62980;-71
2023/08/10 08:39:59;;;;;;;3.80;2.00;;;;;;;42.57;14.66;100628.15;107807;1257;60238;-72
2023/08/10 08:42:27;;;;;;;3.20;2.00;;;;;;;42.43;14.73;100632.50;107854;1258;66063;-73
2023/08/10 08:44:54;;;;;;;7.70;2.90;;;;;;;42.01;14.57;100631.08;107783;1258;59497;-71
2023/08/10 08:47:21;;;;;;;5.50;1.90;;;;;;;41.94;14.50;100630.25;107780;1257;59506;-71
2023/08/10 08:49:49;;;;;;;4.00;1.70;;;;;;;41.77;14.12;100627.41;107749;1257;62981;-72
2023/08/10 08:52:16;;;;;;;7.80;1.80;;;;;;;41.65;13.92;100625.77;107771;1256;60663;-71
2023/08/10 08:54:44;;;;;;;5.90;1.70;;;;;;;41.16;14.35;100630.46;107827;1257;62466;-73
2023/08/10 08:57:11;;;;;;;2.90;1.70;;;;;;;40.92;14.85;100629.31;107773;1260;59522;-74
2023/08/10 08:59:38;;;;;;;5.80;1.80;;;;;;;40.65;15.16;100628.20;107656;1262;59169;-70
2023/08/10 09:02:07;;;;;;;5.50;1.60;;;;;;;40.81;14.93;100625.43;107825;1257;63147;-74
2023/08/10 09:04:45;;;;;;;3.70;1.30;;;;;;;41.47;14.64;100621.09;107881;1256;60118;-71
2023/08/10 09:07:12;;;;;;;3.90;2.00;;;;;;;41.72;14.02;100623.14;107865;1257;62585;-71
2023/08/10 09:09:40;;;;;;;4.10;1.80;;;;;;;41.95;14.06;100619.05;107931;1256;59682;-74
2023/08/10 09:12:36;;;;;;;7.60;1.90;;;;;;;42.22;14.17;100621.94;107785;1255;59393;-70
2023/08/10 09:15:08;;;;;;;6.00;2.10;;;;;;;42.53;14.08;100616.95;107890;1257;64389;-73
2023/08/10 09:17:43;;;;;;;4.60;1.60;;;;;;;42.46;13.71;100621.21;107835;1256;60102;-71
2023/08/10 09:20:27;;;;;;;5.20;2.00;;;;;;;42.05;14.25;100623.10;107862;1257;63018;-71
2023/08/10 09:22:57;;;;;;;3.30;1.80;;;;;;;41.34;14.48;100616.75;107754;1258;59506;-71
2023/08/10 09:25:25;;;;;;;5.10;1.80;;;;;;;40.89;15.06;100615.29;107771;1256;59519;-72
2023/08/10 09:27:53;;;;;;;3.20;1.80;;;;;;;40.89;15.34;100610.65;107917;1257;62850;-71
2023/08/10 09:30:20;;;;;;;4.30;1.80;;;;;;;41.36;14.79;100607.19;107790;1256;60114;-70
2023/08/10 09:32:48;;;;;;;4.50;1.90;;;;;;;40.82;14.04;100616.17;107748;1257;62516;-72
2023/08/10 09:35:16;;;;;;;4.70;2.00;;;;;;;40.33;14.83;100614.30;107859;1257;59487;-72
2023/08/10 09:37:46;;;;;;;5.60;2.20;;;;;;;40.28;15.08;100608.84;107656;1256;59759;-71
2023/08/10 09:40:16;;;;;;;8.00;2.10;;;;;;;40.43;15.06;100607.78;107823;1257;64039;-70
2023/08/10 09:42:44;;;;;;;4.30;1.80;;;;;;;40.50;14.59;100609.88;107763;1257;71042;-71
2023/08/10 09:45:12;;;;;;;5.30;1.90;;;;;;;40.56;14.69;100608.63;107718;1257;63742;-71
2023/08/10 09:47:41;;;;;;;5.20;2.30;;;;;;;40.23;14.70;100606.80;107820;1257;60424;-71
2023/08/10 09:50:14;;;;;;;6.80;2.00;;;;;;;40.45;14.94;100612.54;107783;1257;60312;-72
2023/08/10 09:52:42;;;;;;;3.60;1.90;;;;;;;40.69;14.79;100617.42;107900;1256;63998;-71
2023/08/10 09:55:10;;;;;;;3.60;1.90;;;;;;;40.70;14.50;100621.58;107902;1257;60456;-72
2023/08/10 09:57:44;;;;;;;3.40;1.70;;;;;;;40.56;14.89;100615.43;107802;1257;62435;-72
2023/08/10 10:00:18;;;;;;;5.60;1.80;;;;;;;40.23;15.38;100613.98;107794;1256;60273;-73
2023/08/10 10:02:47;;;;;;;5.00;1.90;;;;;;;39.87;15.08;100620.27;108068;1253;60325;-72
2023/08/10 10:05:17;;;;;;;5.40;2.00;;;;;;;39.92;15.02;100624.58;108053;1254;64944;-72
2023/08/10 10:08:02;;;;;;;3.40;1.90;;;;;;;39.89;15.18;100624.67;108108;1253;61560;-72
2023/08/10 10:10:32;;;;;;;4.10;1.80;;;;;;;39.79;15.13;100620.20;107981;1254;63881;-70
2023/08/10 10:13:00;;;;;;;8.70;1.90;;;;;;;39.69;15.29;100620.48;108088;1253;60395;-71
2023/08/10 10:15:27;;;;;;;4.40;1.90;;;;;;;39.45;15.66;100613.70;108122;1253;60566;-71
2023/08/10 10:17:54;;;;;;;3.40;1.90;;;;;;;39.51;16.01;100606.20;108079;1253;63711;-71
2023/08/10 10:20:22;;;;;;;5.50;2.10;;;;;;;39.70;15.79;100605.73;107949;1254;61359;-72
2023/08/10 10:22:49;;;;;;;5.60;2.50;;;;;;;40.14;15.64;100604.80;108020;1253;63725;-71
2023/08/10 10:25:18;;;;;;;5.50;1.80;;;;;;;40.49;15.30;100606.42;108108;1254;60443;-71
2023/08/10 10:27:47;;;;;;;3.00;2.00;;;;;;;40.49;14.96;100605.70;108143;1253;59324;-71
2023/08/10 10:30:16;;;;;;;3.80;1.80;;;;;;;40.55;14.92;100607.67;108173;1253;64978;-71
2023/08/10 10:32:45;;;;;;;5.10;1.90;;;;;;;40.64;14.98;100601.30;108114;1254;61483;-70
2023/08/10 10:35:24;;;;;;;2.30;1.60;;;;;;;40.86;15.27;100592.70;108213;1254;66246;-70
2023/08/10 10:37:55;;;;;;;7.20;2.30;;;;;;;41.27;15.09;100589.61;108117;1254;60629;-71
2023/08/10 10:40:23;;;;;;;5.10;2.10;;;;;;;41.37;14.48;100594.50;108086;1253;60242;-71
2023/08/10 10:43:03;;;;;;;11.40;2.90;;;;;;;41.05;14.74;100592.05;108082;1253;64116;-71
2023/08/10 10:45:34;;;;;;;4.20;2.10;;;;;;;40.91;14.60;100594.48;108102;1254;61414;-70
2023/08/10 10:48:04;;;;;;;3.10;1.70;;;;;;;40.94;14.67;100593.06;108053;1259;66076;-70
2023/08/10 10:50:32;;;;;;;2.60;1.80;;;;;;;41.29;14.15;100586.32;108114;1254;60342;-73
2023/08/10 10:53:04;;;;;;;5.00;2.10;;;;;;;41.35;14.03;100585.67;108127;1253;60581;-71
2023/08/10 10:55:34;;;;;;;7.00;4.30;;;;;;;40.83;14.29;100584.30;108194;1254;63731;-72
2023/08/10 10:58:02;;;;;;;18.30;3.90;;;;;;;40.58;14.52;100582.11;108123;1254;60690;-71
2023/08/10 11:00:30;;;;;;;4.50;1.90;;;;;;;40.34;14.80;100577.23;108116;1254;63290;-72
2023/08/10 11:02:57;;;;;;;7.90;4.60;;;;;;;40.29;14.76;100572.77;108093;1254;60257;-73
2023/08/10 11:05:25;;;;;;;5.50;2.20;;;;;;;40.39;15.05;100574.42;108124;1253;60389;-71
2023/08/10 11:07:52;;;;;;;3.00;1.70;;;;;;;40.01;14.70;100576.65;108092;1259;64947;-71
2023/08/10 11:10:21;;;;;;;4.20;2.00;;;;;;;39.97;14.83;100573.58;108087;1254;61434;-72
2023/08/10 11:12:49;;;;;;;5.10;1.90;;;;;;;40.03;15.06;100568.46;108027;1254;62482;-71
2023/08/10 11:15:18;;;;;;;4.60;1.70;;;;;;;40.07;15.19;100567.20;108025;1254;60402;-72
2023/08/10 11:17:52;;;;;;;6.10;2.10;;;;;;;40.15;15.32;100563.84;108047;1259;60428;-71
2023/08/10 11:20:21;;;;;;;9.80;2.10;;;;;;;40.22;15.51;100565.89;108071;1254;65003;-71